Terminal Aerodrome Forecast
Issued by NWS

Home | Current Version | Previous Version | Text Only | Print | Product List | Glossary On
Versions: 1 2 3 4 5 6 7 8 9 10 11 12 13 14 15 16 17
000
FTUS43 KDVN 261700
TAFCID
TAF
KCID 261723Z 2618/2718 14009KT P6SM BKN150
     FM262000 16009KT P6SM VCTS SCT035CB BKN150
     FM270200 VRB03KT P6SM FEW035 SCT200
     FM270600 30009KT P6SM FEW250
     FM271430 31017G25KT P6SM FEW060=

USA.gov is the U.S. government's official web portal to all federal, state and local government web resources and services.